This is the latest recevied weather packets stored in our database for station/object YO3IEZ-WX. If no packets are shown the sender has not sent any weather packets the latest 10 day(s).
| Time | Temp. | Humidity | Pressure | Rain* | Wind** | Luminosity | Snow |
|---|---|---|---|---|---|---|---|
| 1778146243 | 21.67° C | 42% | 1006.1 hPa | 0 mm | - | 821 W/m² | - |
| 1778142653 | 20.56° C | 46% | 1006 hPa | 0 mm | - | 768 W/m² | - |
| 1778141750 | 20.56° C | 46% | 1006 hPa | 0 mm | - | 712 W/m² | - |
| 1778134547 | 16.11° C | 61% | 1005.9 hPa | 0 mm | - | 429 W/m² | - |
| 1778131851 | 14.44° C | 68% | 1006 hPa | 0 mm | - | 315 W/m² | - |
| 1778130949 | 13.33° C | 70% | 1006 hPa | 0 mm | - | 276 W/m² | - |
| 1778130050 | 12.78° C | 72% | 1006 hPa | 0 mm | - | 339 W/m² | - |
| 1778129148 | 12.22° C | 74% | 1006 hPa | 0 mm | - | 271 W/m² | - |
| 1778126445 | 11.67° C | 77% | 1005.6 hPa | 0 mm | - | 40 W/m² | - |
| 1778125558 | 11.11° C | 77% | 1005.7 hPa | 0 mm | - | 47 W/m² | - |
| 1778119254 | 11.11° C | 76% | 1005.2 hPa | 0 mm | - | 0 W/m² | - |
| 1778115665 | 12.22° C | 73% | 1005.1 hPa | 0 mm | - | 0 W/m² | - |
| 1778110260 | 13.89° C | 63% | 1004.9 hPa | 0 mm | - | 0 W/m² | - |
| 1778097657 | 16.11° C | 68% | 1004.7 hPa | 0 mm | - | 0 W/m² | - |
| 1778096753 | 16.11° C | 67% | 1004.7 hPa | 0 mm | - | 0 W/m² | - |
| 1778094954 | 17.22° C | 64% | 1004.5 hPa | 0 mm | - | 0 W/m² | - |
| 1778086851 | 21.67° C | 50% | 1003.5 hPa | 0 mm | - | 18 W/m² | - |
| 1778081447 | 24.44° C | 42% | 1003.3 hPa | 0 mm | - | 237 W/m² | - |
| 1778079661 | 25.56° C | 40% | 1003.5 hPa | 0 mm | - | 320 W/m² | - |
| 1778078763 | 25.56° C | 40% | 1003.5 hPa | 0 mm | - | 362 W/m² | - |
| 1778074262 | 25.56° C | 40% | 1003.7 hPa | 0 mm | - | 564 W/m² | - |
| 1778073347 | 25° C | 41% | 1003.7 hPa | 0 mm | - | 601 W/m² | - |
| 1778072494 | 25.56° C | 41% | 1003.8 hPa | 0 mm | - | 631 W/m² | - |
| 1778066147 | 25° C | 41% | 1004.4 hPa | 0 mm | - | 795 W/m² | - |
| 1778064354 | 23.89° C | 45% | 1004.5 hPa | 0 mm | - | 817 W/m² | - |
* Rain latest hour (hover to see other rain measurements)
** Current wind speed in m/s (hover to see current wind gust speed)